createdAt,value
2017-03-06T00:00:20.533Z,9.43
2017-03-06T00:01:01.065Z,9.38
2017-03-06T00:01:41.597Z,9.46
2017-03-06T00:02:22.077Z,9.54
2017-03-06T00:03:02.543Z,9.42
2017-03-06T00:03:43.063Z,9.47
2017-03-06T00:04:23.587Z,9.38
2017-03-06T00:05:04.053Z,9.5
2017-03-06T00:05:44.638Z,9.53
2017-03-06T00:06:25.108Z,9.47
2017-03-06T00:07:05.647Z,9.48
2017-03-06T00:07:46.136Z,9.53
2017-03-06T00:08:26.680Z,9.57
2017-03-06T00:09:07.148Z,9.51
2017-03-06T00:09:47.663Z,9.51
2017-03-06T00:10:28.170Z,9.38
2017-03-06T00:11:08.695Z,9.46
2017-03-06T00:11:49.201Z,9.5
2017-03-06T00:12:29.698Z,9.57
2017-03-06T00:13:10.149Z,9.6
2017-03-06T00:13:50.665Z,9.61
2017-03-06T00:14:31.153Z,9.61
2017-03-06T00:15:11.834Z,9.5
2017-03-06T00:15:52.196Z,9.47
2017-03-06T00:16:32.805Z,9.48
2017-03-06T00:17:13.295Z,9.48
2017-03-06T00:17:53.777Z,9.57
2017-03-06T00:18:34.253Z,9.54
2017-03-06T00:19:14.751Z,9.64
2017-03-06T00:19:55.273Z,9.57
2017-03-06T00:20:35.813Z,9.68
2017-03-06T00:21:16.316Z,9.54
2017-03-06T00:21:56.842Z,9.47
2017-03-06T00:22:37.367Z,9.47
2017-03-06T00:23:17.882Z,9.5
2017-03-06T00:23:58.383Z,9.56
2017-03-06T00:24:38.867Z,9.51
2017-03-06T00:25:19.430Z,9.5
2017-03-06T00:25:59.926Z,9.58
2017-03-06T00:26:40.323Z,9.65
2017-03-06T00:27:20.796Z,9.68
2017-03-06T00:28:01.293Z,9.66
2017-03-06T00:28:41.793Z,9.64
2017-03-06T00:29:22.311Z,9.58
2017-03-06T00:30:02.851Z,9.48
2017-03-06T00:30:43.384Z,9.56
2017-03-06T00:31:23.798Z,9.58
2017-03-06T00:32:04.326Z,9.6
2017-03-06T00:32:44.770Z,9.57
2017-03-06T00:33:25.281Z,9.58
2017-03-06T00:34:05.773Z,9.58
2017-03-06T00:34:46.241Z,9.5
2017-03-06T00:35:26.752Z,9.38
2017-03-06T00:36:07.575Z,9.42
2017-03-06T00:36:48.049Z,9.46
2017-03-06T00:37:28.537Z,9.54
2017-03-06T00:38:09.018Z,9.5
2017-03-06T00:38:49.479Z,9.5
2017-03-06T00:39:30.000Z,9.57
2017-03-06T00:40:10.524Z,9.65
2017-03-06T00:40:51.054Z,9.53
2017-03-06T00:41:31.508Z,9.4
2017-03-06T00:42:12.042Z,9.48
2017-03-06T00:42:52.534Z,9.51
2017-03-06T00:43:33.056Z,9.53
2017-03-06T00:44:13.585Z,9.48
2017-03-06T00:44:54.099Z,9.57
2017-03-06T00:45:35.032Z,9.58
2017-03-06T00:46:15.441Z,9.64
2017-03-06T00:46:55.932Z,9.65
2017-03-06T00:47:36.433Z,9.76
2017-03-06T00:48:16.947Z,9.6
2017-03-06T00:48:57.478Z,9.65
2017-03-06T00:49:37.981Z,9.71
2017-03-06T00:50:18.515Z,9.61
2017-03-06T00:50:59.075Z,9.64
2017-03-06T00:51:39.535Z,9.57
2017-03-06T00:52:20.032Z,9.61
2017-03-06T00:53:00.534Z,9.5
2017-03-06T00:53:41.128Z,9.5
2017-03-06T00:54:21.590Z,9.54
2017-03-06T00:55:02.102Z,9.53
2017-03-06T00:55:42.654Z,9.51
2017-03-06T00:56:23.118Z,9.53
2017-03-06T00:57:03.585Z,9.51
2017-03-06T00:57:44.076Z,9.6
2017-03-06T00:58:24.585Z,9.6
2017-03-06T00:59:05.075Z,9.65
2017-03-06T00:59:45.580Z,9.58
2017-03-06T01:00:26.084Z,9.38
2017-03-06T01:01:06.624Z,9.5
2017-03-06T01:01:47.095Z,9.48
2017-03-06T01:02:27.624Z,9.54
2017-03-06T01:03:08.100Z,9.5
2017-03-06T01:03:48.601Z,9.6
2017-03-06T01:04:29.066Z,9.66
2017-03-06T01:05:09.597Z,9.65
2017-03-06T01:05:50.174Z,9.61
2017-03-06T01:06:30.633Z,9.61
2017-03-06T01:07:11.147Z,9.51
2017-03-06T01:07:51.617Z,9.51
2017-03-06T01:08:32.122Z,9.56
2017-03-06T01:09:12.630Z,9.53
2017-03-06T01:09:53.139Z,9.56
2017-03-06T01:10:33.718Z,9.5
2017-03-06T01:11:14.159Z,9.56
2017-03-06T01:11:54.668Z,9.43
2017-03-06T01:12:35.196Z,9.47
2017-03-06T01:13:15.687Z,9.5
2017-03-06T01:13:56.174Z,9.38
2017-03-06T01:14:36.688Z,9.39
2017-03-06T01:15:17.230Z,9.53
2017-03-06T01:15:57.813Z,9.51
2017-03-06T01:16:38.210Z,9.39
2017-03-06T01:17:18.693Z,9.38
2017-03-06T01:17:59.196Z,9.38
2017-03-06T01:18:39.707Z,9.39
2017-03-06T01:19:20.186Z,9.31
2017-03-06T01:20:00.697Z,9.38
2017-03-06T01:20:41.286Z,9.39
2017-03-06T01:21:21.722Z,9.39
2017-03-06T01:22:02.196Z,9.43
2017-03-06T01:22:42.681Z,9.38
2017-03-06T01:23:23.195Z,9.33
2017-03-06T01:24:03.691Z,9.32
2017-03-06T01:24:44.206Z,9.32
2017-03-06T01:25:24.739Z,9.39
2017-03-06T01:26:05.270Z,9.35
2017-03-06T01:26:45.799Z,9.26
2017-03-06T01:27:26.297Z,9.33
2017-03-06T01:28:06.787Z,9.39
2017-03-06T01:28:47.295Z,9.26
2017-03-06T01:29:27.788Z,9.28
2017-03-06T01:30:08.288Z,9.28
2017-03-06T01:30:48.866Z,9.23
2017-03-06T01:31:29.343Z,9.36
2017-03-06T01:32:09.814Z,9.32
2017-03-06T01:32:50.302Z,9.28
2017-03-06T01:33:30.779Z,9.29
2017-03-06T01:34:11.286Z,9.28
2017-03-06T01:34:51.774Z,9.17
2017-03-06T01:35:32.313Z,9.28
2017-03-06T01:36:12.769Z,9.14
2017-03-06T01:36:53.299Z,9.24
2017-03-06T01:37:33.811Z,9.14
2017-03-06T01:38:14.315Z,9.17
2017-03-06T01:38:54.839Z,9.24
2017-03-06T01:39:35.333Z,9.24
2017-03-06T01:40:15.888Z,9.28
2017-03-06T01:40:56.373Z,9.28
2017-03-06T01:41:36.840Z,9.29
2017-03-06T01:42:17.348Z,9.33
2017-03-06T01:42:57.859Z,9.29
2017-03-06T01:43:38.379Z,9.08
2017-03-06T01:44:18.860Z,9.08
2017-03-06T01:44:59.377Z,9.15
2017-03-06T01:45:39.981Z,9.31
2017-03-06T01:46:20.578Z,9.32
2017-03-06T01:47:01.032Z,9.39
2017-03-06T01:47:41.579Z,9.42
2017-03-06T01:48:22.061Z,9.36
2017-03-06T01:49:02.591Z,9.43
2017-03-06T01:49:43.079Z,9.42
2017-03-06T01:50:23.623Z,9.32
2017-03-06T01:51:04.141Z,9.21
2017-03-06T01:51:44.578Z,9.4
2017-03-06T01:52:25.077Z,9.39
2017-03-06T01:53:05.586Z,9.4
2017-03-06T01:53:46.114Z,9.38
2017-03-06T01:54:26.594Z,9.26
2017-03-06T01:55:07.093Z,9.36
2017-03-06T01:55:47.652Z,9.39
2017-03-06T01:56:28.322Z,9.42
2017-03-06T01:57:08.707Z,9.31
2017-03-06T01:57:49.198Z,9.21
2017-03-06T01:58:29.715Z,9.31
2017-03-06T01:59:10.226Z,9.39
2017-03-06T01:59:50.730Z,9.32
2017-03-06T02:00:31.271Z,9.33
2017-03-06T02:01:11.768Z,9.38
2017-03-06T02:01:52.267Z,9.43
2017-03-06T02:02:32.794Z,9.32
2017-03-06T02:03:13.317Z,9.56
2017-03-06T02:03:53.870Z,9.53
2017-03-06T02:04:34.328Z,9.51
2017-03-06T02:05:14.863Z,9.53
2017-03-06T02:05:55.378Z,9.53
2017-03-06T02:06:35.860Z,9.58
2017-03-06T02:07:16.360Z,9.48
2017-03-06T02:07:56.929Z,9.38
2017-03-06T02:08:37.408Z,9.36
2017-03-06T02:09:17.920Z,9.53
2017-03-06T02:09:58.442Z,9.54
2017-03-06T02:10:38.995Z,9.57
2017-03-06T02:11:19.506Z,9.57
2017-03-06T02:11:59.999Z,9.6
2017-03-06T02:12:40.510Z,9.5
2017-03-06T02:13:21.036Z,9.5
2017-03-06T02:14:01.509Z,9.48
2017-03-06T02:14:42.008Z,9.54
2017-03-06T02:15:22.618Z,9.5
2017-03-06T02:16:03.093Z,9.5
2017-03-06T02:16:43.594Z,9.36
2017-03-06T02:17:24.077Z,9.56
2017-03-06T02:18:04.585Z,9.51
2017-03-06T02:18:45.161Z,9.54
2017-03-06T02:19:25.646Z,9.43
2017-03-06T02:20:06.168Z,9.48
2017-03-06T02:20:46.771Z,9.5
2017-03-06T02:21:27.211Z,9.24
2017-03-06T02:22:07.711Z,9.29
2017-03-06T02:22:48.213Z,9.39
2017-03-06T02:23:28.720Z,9.36
2017-03-06T02:24:09.178Z,9.35
2017-03-06T02:24:49.667Z,9.39
2017-03-06T02:25:30.310Z,9.33
2017-03-06T02:26:10.771Z,9.36
2017-03-06T02:26:51.205Z,9.4
2017-03-06T02:27:31.696Z,9.32
2017-03-06T02:28:12.213Z,9.26
2017-03-06T02:28:52.656Z,9.1
2017-03-06T02:29:33.152Z,9.24
2017-03-06T02:30:13.678Z,9.29
2017-03-06T02:30:54.261Z,9.33
2017-03-06T02:31:34.701Z,9.36
2017-03-06T02:32:15.227Z,9.29
2017-03-06T02:32:55.717Z,9.28
2017-03-06T02:33:36.222Z,9.32
2017-03-06T02:34:16.740Z,9.26
2017-03-06T02:34:57.264Z,9.28
2017-03-06T02:35:37.864Z,9.39
2017-03-06T02:36:18.298Z,9.35
2017-03-06T02:36:58.768Z,9.4
2017-03-06T02:37:39.266Z,9.4
2017-03-06T02:38:19.788Z,9.43
2017-03-06T02:39:00.252Z,9.48
2017-03-06T02:39:40.745Z,9.39
2017-03-06T02:40:21.247Z,9.4
2017-03-06T02:41:01.850Z,9.43
2017-03-06T02:41:42.332Z,9.4
2017-03-06T02:42:22.823Z,9.46
2017-03-06T02:43:03.309Z,9.36
2017-03-06T02:43:43.794Z,9.5
2017-03-06T02:44:24.304Z,9.53
2017-03-06T02:45:04.792Z,9.54
2017-03-06T02:45:45.453Z,9.58
2017-03-06T02:46:25.912Z,9.51
2017-03-06T02:47:06.407Z,9.4
2017-03-06T02:47:46.909Z,9.4
2017-03-06T02:48:27.421Z,9.4
2017-03-06T02:49:07.911Z,9.47
2017-03-06T02:49:48.437Z,9.56
2017-03-06T02:50:29.007Z,9.48
2017-03-06T02:51:09.524Z,9.54
2017-03-06T02:51:50.001Z,9.39
2017-03-06T02:52:30.493Z,9.38
2017-03-06T02:53:11.004Z,9.54
2017-03-06T02:53:51.516Z,9.42
2017-03-06T02:54:32.027Z,9.38
2017-03-06T02:55:12.565Z,9.35
2017-03-06T02:55:53.236Z,9.39
2017-03-06T02:56:33.650Z,9.5
2017-03-06T02:57:14.159Z,9.53
2017-03-06T02:57:54.690Z,9.5
2017-03-06T02:58:35.154Z,9.47
2017-03-06T02:59:15.667Z,9.54
2017-03-06T02:59:56.203Z,9.64
2017-03-06T03:00:36.724Z,9.69
2017-03-06T03:01:17.207Z,9.65
2017-03-06T03:01:57.711Z,9.5
2017-03-06T03:02:38.170Z,9.53
2017-03-06T03:03:18.701Z,9.51
2017-03-06T03:03:59.216Z,9.53
2017-03-06T03:04:39.725Z,9.6
2017-03-06T03:05:20.268Z,9.5
2017-03-06T03:06:00.747Z,9.39
2017-03-06T03:06:41.241Z,9.38
2017-03-06T03:07:21.733Z,9.51
2017-03-06T03:08:02.236Z,9.38
2017-03-06T03:08:42.770Z,9.53
2017-03-06T03:09:23.266Z,9.51
2017-03-06T03:10:03.774Z,9.58
2017-03-06T03:10:44.329Z,9.39
2017-03-06T03:11:24.780Z,9.5
2017-03-06T03:12:05.268Z,9.53
2017-03-06T03:12:45.791Z,9.46
2017-03-06T03:13:26.288Z,9.51
2017-03-06T03:14:06.749Z,9.48
2017-03-06T03:14:47.252Z,9.51
2017-03-06T03:15:27.759Z,9.51
2017-03-06T03:16:08.275Z,9.53
2017-03-06T03:16:48.741Z,9.53
2017-03-06T03:17:29.233Z,9.47
2017-03-06T03:18:09.733Z,9.4
2017-03-06T03:18:50.239Z,9.48
2017-03-06T03:19:30.774Z,9.26
2017-03-06T03:20:11.331Z,9.28
2017-03-06T03:20:51.799Z,9.32
2017-03-06T03:21:32.258Z,9.31
2017-03-06T03:22:12.769Z,9.32
2017-03-06T03:22:53.253Z,9.4
2017-03-06T03:23:33.781Z,9.21
2017-03-06T03:24:14.288Z,9.15
2017-03-06T03:24:54.791Z,9.13
2017-03-06T03:25:35.384Z,9.11
2017-03-06T03:26:15.813Z,9.28
2017-03-06T03:26:56.371Z,9.29
2017-03-06T03:27:36.872Z,9.13
2017-03-06T03:28:17.370Z,9.18
2017-03-06T03:28:57.863Z,9.15
2017-03-06T03:29:38.426Z,9.24
2017-03-06T03:30:18.929Z,9.26
2017-03-06T03:30:59.456Z,9.35
2017-03-06T03:31:39.919Z,9.21
2017-03-06T03:32:20.432Z,9.29
2017-03-06T03:33:00.895Z,9.28
2017-03-06T03:33:41.372Z,9.36
2017-03-06T03:34:21.872Z,9.28
2017-03-06T03:35:02.324Z,9.29
2017-03-06T03:35:42.958Z,9.28
2017-03-06T03:36:23.389Z,9.32
2017-03-06T03:37:03.889Z,9.43
2017-03-06T03:37:44.388Z,9.36
2017-03-06T03:38:24.938Z,9.35
2017-03-06T03:39:05.425Z,9.42
2017-03-06T03:39:45.904Z,9.35
2017-03-06T03:40:26.441Z,9.29
2017-03-06T03:41:06.961Z,9.31
2017-03-06T03:41:47.497Z,9.17
2017-03-06T03:42:27.946Z,9.13
2017-03-06T03:43:08.477Z,9.08
2017-03-06T03:43:48.965Z,9.11
2017-03-06T03:44:29.471Z,9.18
2017-03-06T03:45:09.937Z,9.23
2017-03-06T03:45:50.532Z,9.23
2017-03-06T03:46:30.983Z,9.32
2017-03-06T03:47:11.487Z,9.31
2017-03-06T03:47:51.978Z,9.33
2017-03-06T03:48:32.524Z,9.35
2017-03-06T03:49:12.981Z,9.2
2017-03-06T03:49:53.468Z,9.15
2017-03-06T03:50:34.012Z,9.2
2017-03-06T03:51:14.484Z,9.35
2017-03-06T03:51:54.975Z,9.18
2017-03-06T03:52:35.530Z,9.28
2017-03-06T03:53:15.992Z,9.33
2017-03-06T03:53:56.526Z,9.35
2017-03-06T03:54:37.042Z,9.32
2017-03-06T03:55:17.594Z,9.32
2017-03-06T03:55:58.095Z,9.29
2017-03-06T03:56:38.561Z,9.14
2017-03-06T03:57:19.209Z,9.23
2017-03-06T03:57:59.696Z,9.17
2017-03-06T03:58:40.188Z,9.15
2017-03-06T03:59:20.666Z,9.08
2017-03-06T04:00:01.127Z,9.02
2017-03-06T04:00:41.678Z,9.02
2017-03-06T04:01:22.175Z,8.96
2017-03-06T04:02:02.629Z,8.98
2017-03-06T04:02:43.190Z,8.96
2017-03-06T04:03:23.666Z,9.05
2017-03-06T04:04:04.139Z,9.14
2017-03-06T04:04:44.645Z,9.05
2017-03-06T04:05:25.777Z,9.13
2017-03-06T04:06:05.679Z,8.99
2017-03-06T04:06:46.175Z,8.98
2017-03-06T04:07:26.651Z,9.15
2017-03-06T04:08:07.156Z,9.11
2017-03-06T04:08:47.628Z,8.99
2017-03-06T04:09:28.132Z,9.02
2017-03-06T04:10:08.700Z,9.01
2017-03-06T04:10:49.190Z,8.87
2017-03-06T04:11:29.699Z,8.83
2017-03-06T04:12:10.151Z,8.87
2017-03-06T04:12:50.647Z,8.86
2017-03-06T04:13:31.165Z,8.76
2017-03-06T04:14:11.663Z,8.83
2017-03-06T04:14:52.111Z,8.87
2017-03-06T04:15:32.655Z,8.92
2017-03-06T04:16:13.128Z,8.99
2017-03-06T04:16:53.639Z,9.05
2017-03-06T04:17:34.161Z,9.02
2017-03-06T04:18:14.667Z,8.91
2017-03-06T04:18:55.148Z,8.99
2017-03-06T04:19:35.623Z,9.13
2017-03-06T04:20:16.167Z,9.13
2017-03-06T04:20:56.701Z,9.13
2017-03-06T04:21:37.125Z,9.08
2017-03-06T04:22:17.650Z,9.13
2017-03-06T04:22:58.133Z,9.18
2017-03-06T04:23:38.616Z,9.15
2017-03-06T04:24:19.109Z,9.24
2017-03-06T04:24:59.567Z,9.28
2017-03-06T04:25:40.183Z,9.17
2017-03-06T04:26:20.756Z,9.13
2017-03-06T04:27:01.233Z,9.28
2017-03-06T04:27:41.735Z,9.29
2017-03-06T04:28:22.183Z,9.15
2017-03-06T04:29:02.692Z,9.13
2017-03-06T04:29:43.172Z,8.99
2017-03-06T04:30:23.735Z,8.94
2017-03-06T04:31:04.226Z,8.99
2017-03-06T04:31:44.729Z,9.08
2017-03-06T04:32:25.218Z,9.14
2017-03-06T04:33:05.666Z,9.31
2017-03-06T04:33:46.171Z,9.33
2017-03-06T04:34:26.644Z,9.36
2017-03-06T04:35:07.140Z,9.33
2017-03-06T04:35:47.745Z,9.24
2017-03-06T04:36:28.188Z,9.28
2017-03-06T04:37:08.695Z,9.43
2017-03-06T04:37:49.189Z,9.24
2017-03-06T04:38:29.770Z,9.36
2017-03-06T04:39:10.217Z,9.4
2017-03-06T04:39:50.711Z,9.26
2017-03-06T04:40:31.193Z,9.2
2017-03-06T04:41:11.677Z,9.24
2017-03-06T04:41:52.175Z,9.14
2017-03-06T04:42:32.642Z,9.11
2017-03-06T04:43:13.129Z,9.1
2017-03-06T04:43:53.628Z,9.11
2017-03-06T04:44:34.126Z,9.28
2017-03-06T04:45:14.711Z,9.26
2017-03-06T04:45:55.142Z,9.28
2017-03-06T04:46:35.668Z,8.96
2017-03-06T04:47:16.178Z,8.96
2017-03-06T04:47:56.676Z,8.83
2017-03-06T04:48:37.184Z,8.95
2017-03-06T04:49:17.647Z,9.05
2017-03-06T04:49:58.175Z,9.11
2017-03-06T04:50:38.713Z,9.02
2017-03-06T04:51:19.138Z,9.13
2017-03-06T04:51:59.643Z,9.11
2017-03-06T04:52:40.135Z,9.17
2017-03-06T04:53:20.614Z,9.26
2017-03-06T04:54:01.155Z,9.28
2017-03-06T04:54:41.620Z,9.24
2017-03-06T04:55:22.180Z,9.29
2017-03-06T04:56:02.728Z,9.29
2017-03-06T04:56:43.183Z,9.24
2017-03-06T04:57:23.669Z,9.2
2017-03-06T04:58:04.207Z,9.17
2017-03-06T04:58:44.651Z,9.05
2017-03-06T04:59:25.175Z,9.14
2017-03-06T05:00:05.655Z,9.11
2017-03-06T05:00:46.235Z,9.13
2017-03-06T05:01:26.785Z,9.11
2017-03-06T05:02:07.290Z,9.04
2017-03-06T05:02:47.779Z,9.01
2017-03-06T05:03:28.282Z,8.99
2017-03-06T05:04:08.757Z,9.11
2017-03-06T05:04:49.234Z,9.11
2017-03-06T05:05:29.785Z,9.04
2017-03-06T05:06:10.360Z,9.13
2017-03-06T05:06:50.824Z,9.2
2017-03-06T05:07:31.294Z,9.17
2017-03-06T05:08:11.787Z,9.08
2017-03-06T05:08:52.289Z,9.1
2017-03-06T05:09:32.798Z,9.24
2017-03-06T05:10:13.362Z,9.36
2017-03-06T05:10:53.902Z,9.31
2017-03-06T05:11:34.313Z,9.24
2017-03-06T05:12:14.800Z,9.24
2017-03-06T05:12:55.321Z,9.08
2017-03-06T05:13:35.804Z,9.18
2017-03-06T05:14:16.317Z,9.2
2017-03-06T05:14:56.841Z,9.14
2017-03-06T05:15:37.393Z,9.08
2017-03-06T05:16:17.980Z,9.26
2017-03-06T05:16:58.451Z,9.28
2017-03-06T05:17:38.969Z,9.28
2017-03-06T05:18:19.482Z,9.17
2017-03-06T05:18:59.993Z,9.29
2017-03-06T05:19:40.491Z,9.32
2017-03-06T05:20:21.047Z,9.39
2017-03-06T05:21:01.505Z,9.39
2017-03-06T05:21:42.015Z,9.43
2017-03-06T05:22:22.465Z,9.38
2017-03-06T05:23:02.942Z,9.4
2017-03-06T05:23:43.442Z,9.36
2017-03-06T05:24:23.929Z,9.33
2017-03-06T05:25:04.470Z,9.36
2017-03-06T05:25:45.020Z,9.39
2017-03-06T05:26:25.478Z,9.38
2017-03-06T05:27:05.972Z,9.39
2017-03-06T05:27:46.457Z,9.4
2017-03-06T05:28:26.937Z,9.51
2017-03-06T05:29:07.467Z,9.39
2017-03-06T05:29:47.934Z,9.39
2017-03-06T05:30:28.460Z,9.5
2017-03-06T05:31:08.950Z,9.39
2017-03-06T05:31:50.451Z,9.33
2017-03-06T05:32:30.936Z,9.38
2017-03-06T05:33:11.449Z,9.39
2017-03-06T05:33:51.937Z,9.5
2017-03-06T05:34:32.507Z,9.47
2017-03-06T05:35:13.013Z,9.48
2017-03-06T05:35:53.562Z,9.54
2017-03-06T05:36:33.952Z,9.6
2017-03-06T05:37:14.501Z,9.66
2017-03-06T05:37:54.980Z,9.68
2017-03-06T05:38:35.464Z,9.68
2017-03-06T05:39:15.951Z,9.64
2017-03-06T05:39:56.481Z,9.66
2017-03-06T05:40:37.116Z,9.65
2017-03-06T05:42:49.987Z,9.75
2017-03-06T05:43:30.502Z,9.72
2017-03-06T05:44:11.016Z,9.74
2017-03-06T05:44:51.533Z,9.84
2017-03-06T05:45:32.072Z,9.75
2017-03-06T05:46:12.564Z,9.71
2017-03-06T05:46:53.194Z,9.83
2017-03-06T05:47:33.684Z,9.58
2017-03-06T05:48:14.176Z,9.65
2017-03-06T05:48:54.693Z,9.65
2017-03-06T05:49:35.179Z,9.68
2017-03-06T05:50:15.690Z,9.71
2017-03-06T05:50:56.241Z,9.78
2017-03-06T05:51:36.721Z,9.84
2017-03-06T05:52:17.221Z,9.84
2017-03-06T05:52:57.755Z,9.87
2017-03-06T05:53:38.265Z,9.91
2017-03-06T05:54:18.738Z,9.97
2017-03-06T05:54:59.242Z,9.87
2017-03-06T05:55:39.875Z,9.89
2017-03-06T05:56:20.307Z,9.91
2017-03-06T05:57:00.788Z,9.97
2017-03-06T05:57:41.301Z,9.9
2017-03-06T05:58:21.895Z,9.97
2017-03-06T05:59:02.449Z,9.81
2017-03-06T05:59:42.938Z,9.87
2017-03-06T06:00:23.503Z,9.91
2017-03-06T06:01:04.002Z,9.76
2017-03-06T06:01:44.445Z,9.71
2017-03-06T06:02:24.917Z,9.65
2017-03-06T06:03:05.464Z,9.76
2017-03-06T06:03:45.911Z,9.78
2017-03-06T06:04:26.446Z,9.76
2017-03-06T06:05:06.912Z,9.79
2017-03-06T06:05:47.496Z,9.68
2017-03-06T06:06:27.939Z,9.69
2017-03-06T06:07:08.435Z,9.54
2017-03-06T06:07:48.954Z,9.56
2017-03-06T06:08:29.399Z,9.64
2017-03-06T06:09:09.898Z,9.66
2017-03-06T06:09:50.394Z,9.58
2017-03-06T06:10:30.895Z,9.6
2017-03-06T06:11:11.403Z,9.58
2017-03-06T06:11:51.863Z,9.5
2017-03-06T06:12:32.403Z,9.51
2017-03-06T06:13:12.896Z,9.58
2017-03-06T06:13:53.356Z,9.53
2017-03-06T06:14:33.861Z,9.48
2017-03-06T06:15:14.458Z,9.54
2017-03-06T06:15:54.921Z,9.5
2017-03-06T06:16:35.567Z,9.36
2017-03-06T06:17:16.035Z,9.36
2017-03-06T06:17:56.535Z,9.35
2017-03-06T06:18:37.049Z,9.4
2017-03-06T06:19:17.559Z,9.48
2017-03-06T06:19:58.017Z,9.43
2017-03-06T06:20:38.567Z,9.36
2017-03-06T06:21:19.067Z,9.21
2017-03-06T06:21:59.549Z,9.14
2017-03-06T06:22:40.081Z,9.17
2017-03-06T06:23:20.617Z,9.18
2017-03-06T06:24:01.085Z,9.17
2017-03-06T06:24:41.573Z,8.95
2017-03-06T06:25:22.099Z,8.96
2017-03-06T06:26:02.629Z,8.99
2017-03-06T06:26:43.065Z,9.04
2017-03-06T06:27:23.577Z,9.15
2017-03-06T06:28:04.048Z,9.15
2017-03-06T06:28:44.588Z,9.1
2017-03-06T06:29:25.116Z,9.23
2017-03-06T06:30:05.600Z,9.29
2017-03-06T06:30:46.217Z,9.33
2017-03-06T06:31:26.719Z,9.4
2017-03-06T06:32:07.186Z,9.38
2017-03-06T06:32:47.647Z,9.36
2017-03-06T06:33:28.146Z,9.28
2017-03-06T06:34:08.675Z,9.28
2017-03-06T06:34:49.145Z,9.33
2017-03-06T06:35:29.637Z,9.33
2017-03-06T06:36:10.188Z,9.35
2017-03-06T06:36:50.604Z,9.23
2017-03-06T06:37:31.132Z,9.1
2017-03-06T06:38:11.623Z,9.08
2017-03-06T06:38:52.109Z,9.08
2017-03-06T06:39:33.694Z,9.13
2017-03-06T06:40:13.536Z,9.13
2017-03-06T06:40:54.124Z,9.04
2017-03-06T06:41:34.622Z,8.83
2017-03-06T06:42:15.116Z,8.96
2017-03-06T06:42:55.603Z,8.96
2017-03-06T06:43:36.087Z,8.99
2017-03-06T06:44:16.566Z,8.95
2017-03-06T06:44:57.090Z,9.08
2017-03-06T06:45:37.604Z,9.14
2017-03-06T06:46:18.153Z,9.15
2017-03-06T06:46:58.679Z,9.26
2017-03-06T06:47:39.132Z,9.11
2017-03-06T06:48:19.607Z,9.1
2017-03-06T06:49:00.098Z,9.26
2017-03-06T06:49:40.619Z,9.11
2017-03-06T06:50:21.117Z,9.1
2017-03-06T06:51:01.704Z,9.24
2017-03-06T06:51:42.098Z,9.23
2017-03-06T06:52:22.559Z,9.36
2017-03-06T06:53:03.184Z,9.36
2017-03-06T06:53:43.652Z,9.32
2017-03-06T06:54:24.150Z,9.26
2017-03-06T06:55:04.632Z,9.4
2017-03-06T06:55:45.260Z,9.51
2017-03-06T06:56:30.554Z,9.43
2017-03-06T06:57:11.017Z,9.4
2017-03-06T06:57:51.510Z,9.32
2017-03-06T06:58:32.089Z,9.26
2017-03-06T06:59:12.554Z,9.08
2017-03-06T06:59:53.137Z,9.08
2017-03-06T07:00:35.851Z,9.05
2017-03-06T07:01:16.845Z,9.1
2017-03-06T07:01:57.414Z,9.14
2017-03-06T07:02:37.989Z,9.29
2017-03-06T07:03:18.544Z,9.39
2017-03-06T07:05:21.766Z,9.38
2017-03-06T07:06:02.739Z,9.35
2017-03-06T07:06:46.548Z,9.32
2017-03-06T07:08:44.404Z,9.54
2017-03-06T07:09:31.313Z,9.51
2017-03-06T07:10:20.842Z,9.47
2017-03-06T07:11:56.848Z,9.6
2017-03-06T07:12:42.136Z,9.54
2017-03-06T07:13:42.373Z,9.53
2017-03-06T07:14:24.646Z,9.69
2017-03-06T07:15:12.739Z,9.91
2017-03-06T07:16:03.564Z,10.02
2017-03-06T07:16:51.038Z,10.27
2017-03-06T07:17:34.510Z,10.64
2017-03-06T07:18:15.033Z,10.64
2017-03-06T07:18:55.569Z,10.66
2017-03-06T07:19:36.018Z,10.61
2017-03-06T07:20:17.448Z,10.66
2017-03-06T07:20:57.760Z,10.61
2017-03-06T07:21:38.269Z,10.52
2017-03-06T07:22:18.689Z,10.45
2017-03-06T07:22:59.280Z,10.63
2017-03-06T07:23:39.717Z,10.59
2017-03-06T07:24:20.190Z,10.61
2017-03-06T07:25:00.691Z,10.73
2017-03-06T07:25:44.605Z,10.41
2017-03-06T07:26:25.086Z,10.4
2017-03-06T07:27:05.592Z,10.3
2017-03-06T07:27:47.656Z,10.4
2017-03-06T07:28:28.196Z,10.42
2017-03-06T07:29:08.754Z,10.53
2017-03-06T07:29:49.326Z,10.73
2017-03-06T07:30:30.769Z,10.74
2017-03-06T07:31:11.281Z,11.02
2017-03-06T07:31:51.795Z,11.25
2017-03-06T07:32:32.254Z,11.49
2017-03-06T07:33:12.769Z,11.52
2017-03-06T07:33:53.278Z,11.51
2017-03-06T07:34:33.745Z,11.44
2017-03-06T07:35:14.224Z,11.65
2017-03-06T07:35:54.759Z,11.55
2017-03-06T07:36:35.403Z,11.4
2017-03-06T07:37:15.945Z,11.62
2017-03-06T07:37:56.582Z,11.7
2017-03-06T07:38:37.052Z,11.69
2017-03-06T07:39:17.609Z,11.7
2017-03-06T07:39:58.337Z,11.78
2017-03-06T07:40:38.819Z,11.55
2017-03-06T07:41:19.747Z,11.61
2017-03-06T07:42:00.422Z,11.96
2017-03-06T07:42:41.021Z,11.95
2017-03-06T07:43:21.470Z,11.79
2017-03-06T07:44:01.997Z,11.82
2017-03-06T07:44:42.537Z,11.55
2017-03-06T07:45:23.047Z,11.8
2017-03-06T07:46:03.496Z,11.7
2017-03-06T07:46:44.010Z,11.76
2017-03-06T07:47:24.491Z,11.78
2017-03-06T07:48:05.073Z,11.73
2017-03-06T07:48:45.974Z,11.51
2017-03-06T07:49:26.438Z,11.55
2017-03-06T07:50:06.933Z,11.4
2017-03-06T07:50:47.434Z,11.61
2017-03-06T07:51:28.025Z,11.57
2017-03-06T07:52:08.606Z,11.46
2017-03-06T07:52:49.089Z,11.42
2017-03-06T07:53:29.559Z,11.47
2017-03-06T07:54:10.086Z,11.39
2017-03-06T07:54:51.054Z,11.04
2017-03-06T07:55:31.503Z,10.96
2017-03-06T07:56:12.043Z,10.92
2017-03-06T07:56:52.512Z,11.04
2017-03-06T07:57:32.998Z,11.19
2017-03-06T07:58:13.478Z,11.24
2017-03-06T07:58:53.991Z,11.35
2017-03-06T07:59:34.506Z,11.19
2017-03-06T08:00:15.018Z,11.18
2017-03-06T08:00:55.581Z,11.28
2017-03-06T08:01:36.235Z,11.36
2017-03-06T08:02:16.709Z,11.42
2017-03-06T08:02:57.219Z,11.18
2017-03-06T08:03:37.731Z,10.99
2017-03-06T08:04:18.224Z,10.91
2017-03-06T08:04:58.710Z,10.92
2017-03-06T08:05:39.210Z,11.1
2017-03-06T08:06:19.710Z,11.35
2017-03-06T08:07:00.231Z,11.27
2017-03-06T08:07:40.745Z,11.64
2017-03-06T08:08:21.338Z,11.6
2017-03-06T08:09:01.781Z,11.39
2017-03-06T08:09:42.313Z,11.55
2017-03-06T08:10:22.731Z,11.62
2017-03-06T08:11:03.270Z,11.9
2017-03-06T08:11:43.818Z,12.04
2017-03-06T08:12:24.322Z,12.02
2017-03-06T08:13:04.784Z,12.16
2017-03-06T08:13:45.295Z,12.31
2017-03-06T08:14:25.779Z,12.27
2017-03-06T08:15:06.295Z,12.39
2017-03-06T08:15:46.796Z,12.34
2017-03-06T08:16:27.474Z,12.47
2017-03-06T08:17:08.089Z,12.64
2017-03-06T08:17:48.593Z,12.32
2017-03-06T08:18:29.065Z,12.6
2017-03-06T08:19:09.560Z,12.75
2017-03-06T08:19:50.073Z,12.52
2017-03-06T08:20:30.532Z,12.64
2017-03-06T08:21:11.074Z,12.79
2017-03-06T08:21:51.576Z,12.78
2017-03-06T08:22:32.051Z,12.74
2017-03-06T08:23:12.593Z,12.6
2017-03-06T08:23:53.073Z,12.65
2017-03-06T08:24:33.594Z,12.49
2017-03-06T08:25:14.123Z,12.2
2017-03-06T08:25:54.554Z,12.27
2017-03-06T08:26:35.048Z,12.31
2017-03-06T08:27:15.541Z,12.49
2017-03-06T08:27:56.040Z,12.67
2017-03-06T08:28:36.541Z,12.72
2017-03-06T08:29:17.009Z,12.83
2017-03-06T08:29:57.540Z,12.9
2017-03-06T08:30:38.018Z,13
2017-03-06T08:31:18.513Z,13
2017-03-06T08:31:59.000Z,13.05
2017-03-06T08:32:39.497Z,13.01
2017-03-06T08:33:20.010Z,12.82
2017-03-06T08:34:00.505Z,12.85
2017-03-06T08:34:40.998Z,13.01
2017-03-06T08:35:21.509Z,12.97
2017-03-06T08:36:02.011Z,12.75
2017-03-06T08:36:42.488Z,12.83
2017-03-06T08:37:22.973Z,12.82
2017-03-06T08:38:03.494Z,12.39
2017-03-06T08:38:43.971Z,12.49
2017-03-06T08:39:24.440Z,12.56
2017-03-06T08:40:04.955Z,12.52
2017-03-06T08:40:45.470Z,12.47
2017-03-06T08:41:26.018Z,12.57
2017-03-06T08:42:06.413Z,12.5
2017-03-06T08:42:46.881Z,12.49
2017-03-06T08:43:27.411Z,12.29
2017-03-06T08:44:07.922Z,12.23
2017-03-06T08:44:48.400Z,12.28
2017-03-06T08:45:28.852Z,12.35
2017-03-06T08:46:09.315Z,12.28
2017-03-06T08:46:49.843Z,12.46
2017-03-06T08:47:30.331Z,12.5
2017-03-06T08:48:10.787Z,12.53
2017-03-06T08:48:51.345Z,12.14
2017-03-06T08:49:31.976Z,11.94
2017-03-06T08:50:12.672Z,11.6
2017-03-06T08:50:53.198Z,11.72
2017-03-06T08:51:33.824Z,11.79
2017-03-06T08:52:14.301Z,11.76
2017-03-06T08:52:54.845Z,11.78
2017-03-06T08:53:35.374Z,11.75
2017-03-06T08:54:15.781Z,11.65
2017-03-06T08:54:56.264Z,11.78
2017-03-06T08:55:36.745Z,11.94
2017-03-06T08:56:17.253Z,12.13
2017-03-06T08:56:57.907Z,12.01
2017-03-06T08:57:38.417Z,12.31
2017-03-06T08:58:18.944Z,12.5
2017-03-06T08:58:59.392Z,12.29
2017-03-06T08:59:39.911Z,12.46
2017-03-06T09:00:20.468Z,12.7
2017-03-06T09:01:00.862Z,12.77
2017-03-06T09:01:41.473Z,12.67
2017-03-06T09:02:21.992Z,12.72
2017-03-06T09:03:02.483Z,12.85
2017-03-06T09:03:43.020Z,13.1
2017-03-06T09:04:23.514Z,12.83